< < Back
Terminal Aerodrome Forecast


Current Version              Previous Versions:   1  2  3  4  5  6  7  8  9  

Terminal Aerodrome Forecast

322
FTUS42 KGSP 242320
TAFCLT
TAF
KCLT 242320Z 2500/2524 20006KT P6SM FEW030 SCT120 SCT250
     FM250700 24005KT P6SM BKN100
     FM250900 28006KT P6SM BKN025
     FM251100 30006KT P6SM BKN035
     FM251300 34006KT P6SM OVC060=



Latest METAR

851
SAUS70 KWBC 250200 RRJ
MTRCLT
METAR KCLT 250152Z 20006KT 10SM BKN140 BKN250 18/15 A2990 RMK AO2 SLP119
T01780150


USA.gov is the U.S. government's official web portal to all federal, state and local government web resources and services.